createdAt,value
2024-04-19T00:00:55.296Z,60.66
2024-04-19T00:03:28.576Z,60.81
2024-04-19T00:05:55.599Z,60.48
2024-04-19T00:08:34.924Z,60.61
2024-04-19T00:11:02.171Z,59.90
2024-04-19T00:13:31.990Z,60.05
2024-04-19T00:16:01.776Z,60.07
2024-04-19T00:18:32.450Z,59.51
2024-04-19T00:21:00.379Z,59.42
2024-04-19T00:23:30.235Z,60.00
2024-04-19T00:25:58.257Z,59.79
2024-04-19T00:28:40.306Z,60.10
2024-04-19T00:31:09.928Z,59.99
2024-04-19T00:33:39.779Z,60.02
2024-04-19T00:36:06.999Z,60.47
2024-04-19T00:38:36.745Z,60.63
2024-04-19T00:41:03.917Z,60.77
2024-04-19T00:43:33.641Z,60.96
2024-04-19T00:46:01.034Z,61.22
2024-04-19T00:48:33.319Z,61.45
2024-04-19T00:51:03.211Z,60.82
2024-04-19T00:53:35.179Z,60.98
2024-04-19T00:56:22.384Z,61.20
2024-04-19T00:58:54.220Z,61.06
2024-04-19T01:01:25.305Z,61.30
2024-04-19T01:04:01.465Z,61.56
2024-04-19T01:06:29.358Z,62.30
2024-04-19T01:08:58.950Z,61.42
2024-04-19T01:11:32.216Z,61.42
2024-04-19T01:14:01.898Z,61.26
2024-04-19T01:16:29.237Z,61.39
2024-04-19T01:19:01.897Z,61.69
2024-04-19T01:21:29.970Z,61.96
2024-04-19T01:24:08.495Z,61.91
2024-04-19T01:26:41.281Z,61.45
2024-04-19T01:29:10.969Z,61.17
2024-04-19T01:31:38.203Z,61.59
2024-04-19T01:34:08.184Z,62.07
2024-04-19T01:36:36.440Z,62.27
2024-04-19T01:39:07.012Z,62.06
2024-04-19T01:41:34.165Z,62.35
2024-04-19T01:44:06.653Z,62.80
2024-04-19T01:46:34.097Z,62.05
2024-04-19T01:49:03.706Z,62.69
2024-04-19T01:51:33.410Z,60.96
2024-04-19T01:54:00.599Z,59.25
2024-04-19T01:56:30.409Z,59.09
2024-04-19T01:58:57.337Z,58.50
2024-04-19T02:01:31.921Z,61.49
2024-04-19T02:04:01.768Z,61.95
2024-04-19T02:06:29.059Z,61.00
2024-04-19T02:08:58.856Z,61.39
2024-04-19T02:11:28.198Z,62.86
2024-04-19T02:13:57.860Z,62.86
2024-04-19T02:16:28.091Z,62.53
2024-04-19T02:18:57.664Z,63.21
2024-04-19T02:21:28.894Z,65.42
2024-04-19T02:24:02.378Z,66.97
2024-04-19T02:26:30.141Z,67.53
2024-04-19T02:29:15.608Z,69.72
2024-04-19T02:31:47.942Z,70.03
2024-04-19T02:34:18.152Z,69.97
2024-04-19T02:36:47.997Z,71.26
2024-04-19T02:39:17.674Z,71.14
2024-04-19T02:41:47.316Z,71.70
2024-04-19T02:44:16.873Z,72.53
2024-04-19T02:46:51.683Z,73.02
2024-04-19T02:49:21.295Z,72.71
2024-04-19T02:51:50.920Z,73.81
2024-04-19T02:54:20.612Z,74.52
2024-04-19T02:56:50.437Z,74.47
2024-04-19T02:59:19.951Z,74.79
2024-04-19T03:01:52.493Z,74.73
2024-04-19T03:04:37.722Z,76.27
2024-04-19T03:07:07.762Z,75.35
2024-04-19T03:09:37.357Z,76.21
2024-04-19T03:12:08.102Z,76.03
2024-04-19T03:14:37.637Z,76.78
2024-04-19T03:17:12.595Z,77.52
2024-04-19T03:19:45.223Z,77.09
2024-04-19T03:22:15.073Z,76.90
2024-04-19T03:24:46.905Z,77.31
2024-04-19T03:27:18.069Z,78.50
2024-04-19T03:29:58.711Z,77.62
2024-04-19T03:32:31.102Z,78.09
2024-04-19T03:35:01.526Z,78.00
2024-04-19T03:37:31.144Z,79.03
2024-04-19T03:40:00.832Z,79.22
2024-04-19T03:42:30.533Z,79.30
2024-04-19T03:45:16.633Z,79.28
2024-04-19T03:47:49.225Z,78.41
2024-04-19T03:50:18.796Z,79.33
2024-04-19T03:52:48.649Z,79.97
2024-04-19T03:55:18.440Z,79.84
2024-04-19T03:57:48.681Z,78.43
2024-04-19T04:00:19.029Z,78.92
2024-04-19T04:02:53.881Z,79.17
2024-04-19T04:05:23.457Z,79.83
2024-04-19T04:07:53.628Z,79.12
2024-04-19T04:10:23.147Z,80.18
2024-04-19T04:12:56.288Z,80.32
2024-04-19T04:15:27.530Z,78.62
2024-04-19T04:18:02.195Z,80.13
2024-04-19T04:20:32.299Z,80.19
2024-04-19T04:23:03.196Z,79.72
2024-04-19T04:25:37.502Z,78.96
2024-04-19T04:28:07.576Z,79.54
2024-04-19T04:30:41.454Z,79.59
2024-04-19T04:33:15.178Z,79.56
2024-04-19T04:35:44.972Z,78.87
2024-04-19T04:38:15.044Z,78.68
2024-04-19T04:40:44.806Z,79.18
2024-04-19T04:43:17.720Z,78.77
2024-04-19T04:45:49.369Z,78.62
2024-04-19T04:48:23.017Z,79.26
2024-04-19T04:50:53.033Z,79.36
2024-04-19T04:53:22.581Z,78.98
2024-04-19T04:55:53.289Z,79.66
2024-04-19T04:58:22.853Z,79.65
2024-04-19T05:00:54.740Z,79.82
2024-04-19T05:03:26.973Z,78.51
2024-04-19T05:05:56.571Z,79.39
2024-04-19T05:08:26.114Z,80.26
2024-04-19T05:10:56.027Z,79.36
2024-04-19T05:13:28.034Z,79.31
2024-04-19T05:15:58.551Z,79.74
2024-04-19T05:18:32.674Z,79.67
2024-04-19T05:21:02.891Z,79.63
2024-04-19T05:23:32.462Z,80.68
2024-04-19T05:26:07.121Z,80.04
2024-04-19T05:28:36.708Z,80.48
2024-04-19T05:31:06.492Z,80.49
2024-04-19T05:33:38.685Z,81.26
2024-04-19T05:36:09.581Z,80.71
2024-04-19T05:38:39.694Z,80.83
2024-04-19T05:41:09.234Z,80.49
2024-04-19T05:43:39.528Z,81.06
2024-04-19T05:46:13.526Z,80.33
2024-04-19T05:48:47.853Z,80.90
2024-04-19T05:51:22.571Z,81.04
2024-04-19T05:53:52.927Z,81.99
2024-04-19T05:56:23.728Z,82.18
2024-04-19T05:58:53.240Z,81.82
2024-04-19T06:01:22.922Z,81.48
2024-04-19T06:03:56.079Z,81.03
2024-04-19T06:06:26.258Z,80.90
2024-04-19T06:08:56.120Z,80.93
2024-04-19T06:11:26.436Z,81.03
2024-04-19T06:13:57.366Z,79.30
2024-04-19T06:16:27.188Z,79.71
2024-04-19T06:19:00.806Z,79.59
2024-04-19T06:21:31.122Z,78.26
2024-04-19T06:24:00.759Z,78.88
2024-04-19T06:26:30.369Z,79.03
2024-04-19T06:29:00.075Z,78.95
2024-04-19T06:31:29.678Z,79.47
2024-04-19T06:34:01.940Z,78.70
2024-04-19T06:36:31.707Z,77.99
2024-04-19T06:39:04.222Z,78.53
2024-04-19T06:41:36.874Z,77.73
2024-04-19T06:44:07.825Z,78.63
2024-04-19T06:46:37.720Z,79.19
2024-04-19T06:49:09.925Z,79.42
2024-04-19T06:51:44.375Z,79.06
2024-04-19T06:54:14.878Z,79.56
2024-04-19T06:56:44.637Z,78.70
2024-04-19T06:59:15.290Z,79.23
2024-04-19T07:01:45.247Z,78.56
2024-04-19T07:04:17.583Z,79.60
2024-04-19T07:06:48.458Z,79.08
2024-04-19T07:09:17.131Z,79.58
2024-04-19T07:11:51.369Z,78.62
2024-04-19T07:14:25.454Z,78.82
2024-04-19T07:16:55.863Z,78.78
2024-04-19T07:19:28.353Z,77.63
2024-04-19T07:21:58.042Z,78.03
2024-04-19T07:24:27.780Z,78.13
2024-04-19T07:26:57.964Z,78.69
2024-04-19T07:29:27.517Z,78.67
2024-04-19T07:31:57.145Z,78.93
2024-04-19T07:34:29.535Z,77.81
2024-04-19T07:36:59.369Z,77.98
2024-04-19T07:39:29.221Z,77.20
2024-04-19T07:42:01.345Z,77.22
2024-04-19T07:44:30.952Z,76.88
2024-04-19T07:47:01.564Z,77.67
2024-04-19T07:49:33.962Z,77.56
2024-04-19T07:52:04.360Z,76.63
2024-04-19T07:54:37.272Z,76.96
2024-04-19T07:57:07.420Z,78.46
2024-04-19T07:59:37.060Z,78.51
2024-04-19T08:02:07.419Z,79.15
2024-04-19T08:04:44.200Z,78.44
2024-04-19T08:07:23.812Z,79.03
2024-04-19T08:09:58.225Z,77.34
2024-04-19T08:12:27.939Z,77.70
2024-04-19T08:14:57.562Z,76.55
2024-04-19T08:17:29.773Z,76.20
2024-04-19T08:20:02.089Z,77.05
2024-04-19T08:22:31.959Z,75.64
2024-04-19T08:25:01.822Z,73.83
2024-04-19T08:27:31.602Z,73.57
2024-04-19T08:30:01.238Z,72.43
2024-04-19T08:32:31.617Z,71.43
2024-04-19T08:35:05.077Z,70.39
2024-04-19T08:37:35.071Z,70.72
2024-04-19T08:40:06.457Z,69.34
2024-04-19T08:42:36.343Z,71.48
2024-04-19T08:45:07.884Z,72.31
2024-04-19T08:47:38.969Z,73.19
2024-04-19T08:50:11.951Z,73.37
2024-04-19T08:53:08.337Z,73.05
2024-04-19T08:55:36.155Z,70.45
2024-04-19T08:58:06.421Z,71.56
2024-04-19T09:00:36.388Z,72.33
2024-04-19T09:03:07.141Z,71.19
2024-04-19T09:05:39.581Z,69.49
2024-04-19T09:08:10.564Z,71.08
2024-04-19T09:10:40.140Z,70.08
2024-04-19T09:13:07.115Z,66.12
2024-04-19T09:15:37.960Z,65.49
2024-04-19T09:18:08.964Z,63.85
2024-04-19T09:20:46.009Z,65.26
2024-04-19T09:23:15.586Z,65.00
2024-04-19T09:25:45.154Z,67.08
2024-04-19T09:28:16.263Z,66.90
2024-04-19T09:30:46.513Z,65.98
2024-04-19T09:33:21.014Z,64.43
2024-04-19T09:35:57.111Z,65.17
2024-04-19T09:38:27.712Z,64.94
2024-04-19T09:40:57.372Z,61.43
2024-04-19T09:43:27.497Z,60.21
2024-04-19T09:45:59.228Z,57.55
2024-04-19T09:48:33.563Z,55.94
2024-04-19T09:51:08.926Z,58.65
2024-04-19T09:53:41.807Z,60.19
2024-04-19T09:56:18.221Z,63.63
2024-04-19T09:58:49.229Z,67.75
2024-04-19T10:01:19.644Z,69.93
2024-04-19T10:03:51.093Z,70.92
2024-04-19T10:06:26.957Z,70.45
2024-04-19T10:08:59.526Z,73.19
2024-04-19T10:11:29.350Z,72.87
2024-04-19T10:13:59.046Z,74.28
2024-04-19T10:16:28.544Z,75.35
2024-04-19T10:18:58.289Z,74.93
2024-04-19T10:21:31.597Z,74.58
2024-04-19T10:24:01.197Z,74.59
2024-04-19T10:26:32.230Z,74.75
2024-04-19T10:29:01.725Z,74.55
2024-04-19T10:31:33.194Z,74.65
2024-04-19T10:34:03.089Z,74.55
2024-04-19T10:36:36.115Z,72.13
2024-04-19T10:39:06.211Z,71.40
2024-04-19T10:41:35.729Z,72.08
2024-04-19T10:44:05.553Z,71.57
2024-04-19T10:46:37.136Z,67.13
2024-04-19T10:49:07.913Z,63.27
2024-04-19T10:51:40.657Z,61.53
2024-04-19T10:54:12.103Z,65.03
2024-04-19T10:56:41.675Z,67.15
2024-04-19T10:59:12.778Z,68.94
2024-04-19T11:01:44.009Z,70.22
2024-04-19T11:04:13.903Z,68.76
2024-04-19T11:06:46.311Z,70.56
2024-04-19T11:09:18.148Z,73.65
2024-04-19T11:11:47.974Z,74.55
2024-04-19T11:14:20.194Z,75.92
2024-04-19T11:16:49.922Z,76.33
2024-04-19T11:19:20.917Z,75.23
2024-04-19T11:21:55.277Z,75.31
2024-04-19T11:24:25.559Z,72.50
2024-04-19T11:26:56.056Z,70.67
2024-04-19T11:29:25.815Z,69.01
2024-04-19T11:31:55.672Z,67.07
2024-04-19T11:34:32.349Z,67.03
2024-04-19T11:37:06.534Z,62.67
2024-04-19T11:39:37.087Z,62.43
2024-04-19T11:42:07.793Z,62.86
2024-04-19T11:44:41.480Z,61.95
2024-04-19T11:47:11.741Z,63.43
2024-04-19T11:49:41.344Z,62.34
2024-04-19T11:52:14.072Z,59.56
2024-04-19T11:54:45.029Z,58.72
2024-04-19T11:57:15.547Z,56.93
2024-04-19T11:59:45.163Z,59.16
2024-04-19T12:02:14.765Z,55.04
2024-04-19T12:04:44.991Z,56.06
2024-04-19T12:07:18.982Z,57.47
2024-04-19T12:09:49.086Z,56.42
2024-04-19T12:13:08.744Z,58.85
2024-04-19T12:15:59.494Z,59.56
2024-04-19T12:18:03.763Z,61.35
2024-04-19T12:20:46.991Z,64.93
2024-04-19T12:23:28.719Z,71.14
2024-04-19T12:26:00.003Z,72.21
2024-04-19T12:28:48.295Z,78.90
2024-04-19T12:31:39.942Z,81.07
2024-04-19T12:37:06.838Z,81.07
2024-04-19T12:39:46.827Z,81.01
2024-04-19T12:42:19.793Z,75.77
2024-04-19T12:44:52.365Z,75.85
2024-04-19T12:47:26.197Z,78.31
2024-04-19T12:49:57.460Z,75.50
2024-04-19T12:52:31.930Z,72.78
2024-04-19T12:55:08.296Z,74.70
2024-04-19T12:57:40.369Z,73.29
2024-04-19T13:00:14.618Z,74.95
2024-04-19T13:02:44.557Z,74.31
2024-04-19T13:05:16.928Z,72.87
2024-04-19T13:07:49.847Z,71.09
2024-04-19T13:10:26.552Z,70.98
2024-04-19T13:13:02.799Z,69.77
2024-04-19T13:15:33.469Z,69.46
2024-04-19T13:18:03.849Z,70.19
2024-04-19T13:20:37.022Z,69.94
2024-04-19T13:23:07.186Z,68.18
2024-04-19T13:25:42.426Z,67.19
2024-04-19T13:28:15.074Z,66.65
2024-04-19T13:30:45.335Z,66.51
2024-04-19T13:33:18.218Z,63.21
2024-04-19T13:36:18.130Z,61.89
2024-04-19T13:38:48.821Z,61.16
2024-04-19T13:41:21.805Z,62.22
2024-04-19T13:43:52.929Z,61.61
2024-04-19T13:46:27.784Z,61.29
2024-04-19T13:49:02.650Z,61.30
2024-04-19T13:51:33.373Z,59.90
2024-04-19T13:54:03.839Z,60.30
2024-04-19T13:56:42.721Z,61.05
2024-04-19T13:59:15.934Z,61.19
2024-04-19T14:01:46.556Z,60.94
2024-04-19T14:07:33.074Z,57.58
2024-04-19T14:10:09.248Z,56.44
2024-04-19T14:12:42.986Z,54.29
2024-04-19T14:15:16.475Z,56.58
2024-04-19T14:17:48.284Z,54.75
2024-04-19T14:20:22.769Z,55.35
2024-04-19T14:22:52.687Z,56.03
2024-04-19T14:25:24.208Z,55.84
2024-04-19T14:27:57.734Z,56.82
2024-04-19T14:33:34.269Z,57.41
2024-04-19T14:38:49.923Z,57.37
2024-04-19T14:41:26.293Z,55.42
2024-04-19T14:43:58.807Z,57.44
2024-04-19T14:46:30.463Z,56.12
2024-04-19T14:49:03.921Z,56.38
2024-04-19T14:51:36.145Z,56.31
2024-04-19T14:54:08.881Z,51.80
2024-04-19T14:56:44.658Z,54.87
2024-04-19T14:59:26.496Z,54.60
2024-04-19T15:02:03.136Z,54.86
2024-04-19T15:04:34.283Z,56.57
2024-04-19T15:07:07.336Z,56.98
2024-04-19T15:09:37.776Z,56.69
2024-04-19T15:12:09.957Z,59.96
2024-04-19T15:14:43.961Z,60.95
2024-04-19T15:17:19.518Z,58.45
2024-04-19T15:19:50.908Z,59.72
2024-04-19T15:22:28.792Z,57.10
2024-04-19T15:25:02.958Z,54.97
2024-04-19T15:27:49.682Z,56.15
2024-04-19T15:30:41.736Z,53.28
2024-04-19T15:35:47.378Z,50.09
2024-04-19T15:38:18.191Z,51.23
2024-04-19T15:40:49.439Z,48.16
2024-04-19T15:43:25.452Z,50.36
2024-04-19T15:45:59.823Z,51.52
2024-04-19T15:48:30.877Z,50.72
2024-04-19T15:51:03.348Z,51.18
2024-04-19T15:56:30.353Z,56.47
2024-04-19T15:59:00.520Z,56.75
2024-04-19T16:01:40.537Z,57.26
2024-04-19T16:04:14.374Z,57.14
2024-04-19T16:06:46.821Z,59.13
2024-04-19T16:09:22.765Z,57.54
2024-04-19T16:11:52.702Z,54.54
2024-04-19T16:14:34.393Z,55.07
2024-04-19T16:17:15.384Z,50.50
2024-04-19T16:19:59.552Z,49.02
2024-04-19T16:22:32.524Z,49.30
2024-04-19T16:25:09.923Z,48.80
2024-04-19T16:27:40.368Z,48.81
2024-04-19T16:30:15.092Z,50.98
2024-04-19T16:32:57.750Z,55.34
2024-04-19T16:35:28.913Z,58.05
2024-04-19T16:38:00.884Z,58.56
2024-04-19T16:40:32.166Z,58.57
2024-04-19T16:43:14.331Z,58.65
2024-04-19T16:45:50.297Z,58.21
2024-04-19T16:48:24.401Z,57.47
2024-04-19T16:50:59.121Z,58.28
2024-04-19T16:53:32.998Z,57.40
2024-04-19T16:56:06.219Z,57.71
2024-04-19T16:58:38.290Z,56.70
2024-04-19T17:01:09.839Z,56.38
2024-04-19T17:06:56.908Z,57.80
2024-04-19T17:19:22.593Z,60.18
2024-04-19T17:25:36.303Z,60.76
2024-04-19T17:28:17.570Z,63.15
2024-04-19T17:30:53.127Z,64.88
2024-04-19T17:33:26.872Z,65.07
2024-04-19T17:36:05.842Z,65.17
2024-04-19T17:38:55.408Z,65.33
2024-04-19T17:53:19.296Z,72.69
2024-04-19T18:06:00.221Z,78.36
2024-04-19T18:14:18.633Z,81.93
2024-04-19T18:16:50.264Z,82.05
2024-04-19T18:19:25.798Z,82.96
2024-04-19T18:21:57.858Z,83.23
2024-04-19T18:24:31.747Z,82.40
2024-04-19T18:27:02.102Z,85.12
2024-04-19T18:29:40.745Z,85.71
2024-04-19T18:32:11.698Z,85.63
2024-04-19T18:35:38.572Z,85.71
2024-04-19T18:38:10.233Z,85.29
2024-04-19T18:43:29.329Z,85.90
2024-04-19T18:46:03.370Z,86.24
2024-04-19T18:48:42.326Z,86.10
2024-04-19T18:51:23.932Z,87.23
2024-04-19T18:53:59.434Z,86.93
2024-04-19T18:56:38.978Z,87.23
2024-04-19T18:59:10.937Z,87.61
2024-04-19T19:01:47.589Z,87.57
2024-04-19T19:04:17.993Z,88.56
2024-04-19T19:07:01.483Z,89.74
2024-04-19T19:09:37.366Z,88.87
2024-04-19T19:12:11.792Z,89.53
2024-04-19T19:14:45.257Z,88.03
2024-04-19T19:17:16.005Z,87.75
2024-04-19T19:20:07.082Z,89.09
2024-04-19T19:22:42.404Z,86.53
2024-04-19T19:25:26.691Z,87.49
2024-04-19T19:27:57.156Z,87.91
2024-04-19T19:30:27.891Z,86.23
2024-04-19T19:39:01.384Z,86.94
2024-04-19T19:41:33.665Z,85.85
2024-04-19T19:44:03.914Z,85.40
2024-04-19T19:46:38.448Z,84.34
2024-04-19T19:55:45.097Z,82.25
2024-04-19T19:58:19.022Z,82.71
2024-04-19T20:07:24.293Z,81.13
2024-04-19T20:10:12.819Z,82.30
2024-04-19T20:13:08.411Z,81.22
2024-04-19T20:15:43.149Z,79.98
2024-04-19T20:18:19.038Z,79.71
2024-04-19T20:20:53.970Z,79.88
2024-04-19T20:23:25.619Z,80.89
2024-04-19T20:25:57.430Z,79.79
2024-04-19T20:28:30.219Z,79.96
2024-04-19T20:31:00.567Z,79.94
2024-04-19T20:33:34.026Z,79.21
2024-04-19T20:36:07.413Z,78.72
2024-04-19T20:38:42.595Z,78.75
2024-04-19T20:44:20.401Z,78.04
2024-04-19T20:46:50.103Z,79.25
2024-04-19T20:49:20.294Z,79.40
2024-04-19T20:51:52.497Z,78.77
2024-04-19T20:54:23.472Z,78.02
2024-04-19T20:56:53.219Z,78.26
2024-04-19T20:59:30.401Z,78.72
2024-04-19T21:02:14.592Z,77.40
2024-04-19T21:04:44.185Z,77.94
2024-04-19T21:07:14.199Z,76.73
2024-04-19T21:09:45.424Z,76.84
2024-04-19T21:12:18.983Z,77.49
2024-04-19T21:14:53.535Z,76.38
2024-04-19T21:17:30.026Z,76.97
2024-04-19T21:20:00.600Z,75.30
2024-04-19T21:22:32.292Z,75.76
2024-04-19T21:25:03.527Z,76.50
2024-04-19T21:27:35.337Z,76.24
2024-04-19T21:30:17.246Z,75.71
2024-04-19T21:32:48.224Z,76.15
2024-04-19T21:35:20.950Z,76.73
2024-04-19T21:37:48.142Z,76.40
2024-04-19T21:40:18.916Z,75.51
2024-04-19T21:42:52.741Z,75.61
2024-04-19T21:45:26.299Z,76.41
2024-04-19T21:47:56.306Z,75.91
2024-04-19T21:50:26.265Z,74.82
2024-04-19T21:52:55.847Z,75.85
2024-04-19T21:58:12.700Z,76.26
2024-04-19T22:00:48.313Z,77.32
2024-04-19T22:03:18.069Z,76.55
2024-04-19T22:05:48.356Z,77.68
2024-04-19T22:08:19.122Z,78.31
2024-04-19T22:10:49.926Z,78.81
2024-04-19T22:13:21.964Z,77.94
2024-04-19T22:15:54.930Z,77.91
2024-04-19T22:18:24.559Z,77.76
2024-04-19T22:21:07.311Z,77.58
2024-04-19T22:23:38.299Z,77.63
2024-04-19T22:26:11.510Z,76.69
2024-04-19T22:32:04.176Z,76.49
2024-04-19T22:34:39.747Z,76.47
2024-04-19T22:53:05.578Z,77.09
2024-04-19T22:56:08.744Z,77.30
2024-04-19T23:01:40.009Z,76.56
2024-04-19T23:07:19.823Z,77.65
2024-04-19T23:10:04.054Z,76.91
2024-04-19T23:12:34.634Z,77.08
2024-04-19T23:15:08.766Z,76.34
2024-04-19T23:17:43.434Z,76.64
2024-04-19T23:20:14.371Z,76.85
2024-04-19T23:22:45.186Z,76.09
2024-04-19T23:25:16.005Z,77.43
2024-04-19T23:27:49.480Z,77.00
2024-04-19T23:31:34.664Z,77.11
2024-04-19T23:34:08.164Z,77.77
2024-04-19T23:36:40.325Z,78.43
2024-04-19T23:39:11.845Z,77.12
2024-04-19T23:41:42.527Z,77.08
2024-04-19T23:44:14.684Z,76.48
2024-04-19T23:46:45.041Z,77.14
2024-04-19T23:49:19.880Z,76.55
2024-04-19T23:51:52.043Z,77.68
2024-04-19T23:54:22.428Z,77.22
2024-04-19T23:56:54.037Z,77.54
2024-04-19T23:59:24.816Z,78.10
